createdAt,value
2018-04-06T00:00:26.798Z,-0.30
2018-04-06T00:01:27.268Z,-0.30
2018-04-06T00:02:27.781Z,-0.32
2018-04-06T00:03:28.212Z,-0.32
2018-04-06T00:04:28.683Z,-0.32
2018-04-06T00:05:29.155Z,-0.30
2018-04-06T00:06:29.628Z,-0.32
2018-04-06T00:07:30.099Z,-0.33
2018-04-06T00:08:30.569Z,-0.34
2018-04-06T00:09:31.042Z,-0.32
2018-04-06T00:10:31.512Z,-0.34
2018-04-06T00:11:31.988Z,-0.36
2018-04-06T00:12:32.458Z,-0.34
2018-04-06T00:13:32.931Z,-0.36
2018-04-06T00:14:33.401Z,-0.34
2018-04-06T00:15:33.872Z,-0.36
2018-04-06T00:16:34.344Z,-0.37
2018-04-06T00:17:34.817Z,-0.36
2018-04-06T00:18:35.287Z,-0.36
2018-04-06T00:19:35.760Z,-0.38
2018-04-06T00:20:36.231Z,-0.36
2018-04-06T00:21:36.704Z,-0.36
2018-04-06T00:22:37.176Z,-0.38
2018-04-06T00:23:37.647Z,-0.38
2018-04-06T00:24:38.121Z,-0.38
2018-04-06T00:25:38.591Z,-0.38
2018-04-06T00:26:39.062Z,-0.38
2018-04-06T00:27:39.535Z,-0.39
2018-04-06T00:28:40.005Z,-0.40
2018-04-06T00:29:40.477Z,-0.40
2018-04-06T00:30:40.949Z,-0.39
2018-04-06T00:31:41.422Z,-0.41
2018-04-06T00:32:41.896Z,-0.42
2018-04-06T00:33:42.366Z,-0.40
2018-04-06T00:34:42.838Z,-0.42
2018-04-06T00:35:43.309Z,-0.40
2018-04-06T00:36:43.780Z,-0.42
2018-04-06T00:37:44.252Z,-0.42
2018-04-06T00:38:44.724Z,-0.42
2018-04-06T00:39:45.194Z,-0.44
2018-04-06T00:40:45.665Z,-0.44
2018-04-06T00:41:46.140Z,-0.44
2018-04-06T00:42:46.612Z,-0.44
2018-04-06T00:43:47.083Z,-0.45
2018-04-06T00:44:47.556Z,-0.45
2018-04-06T00:45:48.025Z,-0.46
2018-04-06T00:46:48.505Z,-0.46
2018-04-06T00:47:48.968Z,-0.44
2018-04-06T00:48:49.438Z,-0.46
2018-04-06T00:49:49.911Z,-0.47
2018-04-06T00:50:50.383Z,-0.46
2018-04-06T00:51:50.855Z,-0.48
2018-04-06T00:52:51.327Z,-0.48
2018-04-06T00:53:51.798Z,-0.48
2018-04-06T00:54:52.270Z,-0.48
2018-04-06T00:55:52.744Z,-0.48
2018-04-06T00:56:53.213Z,-0.49
2018-04-06T00:57:53.685Z,-0.48
2018-04-06T00:58:54.208Z,-0.50
2018-04-06T00:59:54.632Z,-0.51
2018-04-06T01:00:55.102Z,-0.52
2018-04-06T01:01:55.572Z,-0.52
2018-04-06T01:02:56.042Z,-0.51
2018-04-06T01:03:56.515Z,-0.54
2018-04-06T01:04:56.988Z,-0.52
2018-04-06T01:05:57.459Z,-0.52
2018-04-06T01:06:57.934Z,-0.52
2018-04-06T01:07:58.402Z,-0.52
2018-04-06T01:08:58.874Z,-0.52
2018-04-06T01:09:59.345Z,-0.54
2018-04-06T01:10:59.816Z,-0.54
2018-04-06T01:12:00.292Z,-0.56
2018-04-06T01:13:00.760Z,-0.56
2018-04-06T01:14:01.231Z,-0.56
2018-04-06T01:15:01.705Z,-0.56
2018-04-06T01:16:02.175Z,-0.58
2018-04-06T01:17:02.646Z,-0.58
2018-04-06T01:18:03.117Z,-0.58
2018-04-06T01:19:03.589Z,-0.58
2018-04-06T01:20:04.063Z,-0.58
2018-04-06T01:21:04.532Z,-0.58
2018-04-06T01:22:05.005Z,-0.60
2018-04-06T01:23:05.478Z,-0.60
2018-04-06T01:24:05.946Z,-0.60
2018-04-06T01:25:06.417Z,-0.60
2018-04-06T01:26:06.889Z,-0.59
2018-04-06T01:27:07.361Z,-0.62
2018-04-06T01:28:07.837Z,-0.62
2018-04-06T01:29:08.303Z,-0.62
2018-04-06T01:30:08.776Z,-0.62
2018-04-06T01:31:09.248Z,-0.63
2018-04-06T01:32:09.721Z,-0.62
2018-04-06T01:33:10.190Z,-0.63
2018-04-06T01:34:10.661Z,-0.64
2018-04-06T01:35:11.138Z,-0.65
2018-04-06T01:36:11.604Z,-0.64
2018-04-06T01:37:12.074Z,-0.64
2018-04-06T01:38:12.549Z,-0.64
2018-04-06T01:39:13.067Z,-0.65
2018-04-06T01:40:13.491Z,-0.66
2018-04-06T01:41:13.961Z,-0.66
2018-04-06T01:42:14.435Z,-0.67
2018-04-06T01:43:14.904Z,-0.68
2018-04-06T01:44:15.379Z,-0.68
2018-04-06T01:45:15.846Z,-0.68
2018-04-06T01:46:16.318Z,-0.68
2018-04-06T01:47:16.792Z,-0.69
2018-04-06T01:48:17.259Z,-0.69
2018-04-06T01:49:17.785Z,-0.70
2018-04-06T01:50:18.202Z,-0.70
2018-04-06T01:51:18.674Z,-0.71
2018-04-06T01:52:19.151Z,-0.70
2018-04-06T01:53:19.617Z,-0.72
2018-04-06T01:54:20.087Z,-0.72
2018-04-06T01:55:20.563Z,-0.74
2018-04-06T01:56:21.032Z,-0.74
2018-04-06T01:57:21.501Z,-0.74
2018-04-06T01:58:21.975Z,-0.74
2018-04-06T01:59:22.498Z,-0.74
2018-04-06T02:00:22.918Z,-0.76
2018-04-06T02:01:23.386Z,-0.75
2018-04-06T02:02:23.858Z,-0.76
2018-04-06T02:03:24.331Z,-0.76
2018-04-06T02:04:24.802Z,-0.78
2018-04-06T02:05:25.272Z,-0.78
2018-04-06T02:06:25.747Z,-0.79
2018-04-06T02:07:26.215Z,-0.79
2018-04-06T02:08:26.689Z,-0.79
2018-04-06T02:09:27.158Z,-0.80
2018-04-06T02:10:27.629Z,-0.80
2018-04-06T02:11:28.103Z,-0.82
2018-04-06T02:12:28.577Z,-0.80
2018-04-06T02:13:29.042Z,-0.81
2018-04-06T02:14:29.512Z,-0.83
2018-04-06T02:15:29.986Z,-0.82
2018-04-06T02:16:30.457Z,-0.83
2018-04-06T02:17:30.928Z,-0.83
2018-04-06T02:18:31.400Z,-0.84
2018-04-06T02:19:31.921Z,-0.86
2018-04-06T02:20:32.343Z,-0.85
2018-04-06T02:21:32.814Z,-0.85
2018-04-06T02:22:33.288Z,-0.86
2018-04-06T02:23:33.755Z,-0.87
2018-04-06T02:24:34.307Z,-0.88
2018-04-06T02:25:34.698Z,-0.88
2018-04-06T02:26:35.174Z,-0.88
2018-04-06T02:27:35.640Z,-0.89
2018-04-06T02:28:36.113Z,-0.90
2018-04-06T02:29:36.633Z,-0.90
2018-04-06T02:30:37.055Z,-0.90
2018-04-06T02:31:37.524Z,-0.89
2018-04-06T02:32:38.002Z,-0.90
2018-04-06T02:33:38.467Z,-0.90
2018-04-06T02:34:38.938Z,-0.91
2018-04-06T02:35:39.413Z,-0.92
2018-04-06T02:36:39.882Z,-0.92
2018-04-06T02:37:40.355Z,-0.92
2018-04-06T02:38:40.824Z,-0.92
2018-04-06T02:39:41.344Z,-0.94
2018-04-06T02:40:41.769Z,-0.94
2018-04-06T02:41:42.236Z,-0.95
2018-04-06T02:42:42.708Z,-0.94
2018-04-06T02:43:43.187Z,-0.95
2018-04-06T02:44:43.704Z,-0.95
2018-04-06T02:45:44.121Z,-0.96
2018-04-06T02:46:44.594Z,-0.94
2018-04-06T02:47:45.060Z,-0.97
2018-04-06T02:48:45.536Z,-0.98
2018-04-06T02:49:46.066Z,-0.98
2018-04-06T02:50:46.476Z,-0.98
2018-04-06T02:51:46.949Z,-0.98
2018-04-06T02:52:47.422Z,-0.98
2018-04-06T02:53:47.889Z,-0.98
2018-04-06T02:54:48.361Z,-0.98
2018-04-06T02:55:48.831Z,-0.99
2018-04-06T02:56:49.303Z,-1.00
2018-04-06T02:57:49.774Z,-1.00
2018-04-06T02:58:50.245Z,-1.00
2018-04-06T02:59:50.769Z,-1.00
2018-04-06T03:00:51.188Z,-1.01
2018-04-06T03:02:52.133Z,-1.02
2018-04-06T03:03:52.602Z,-1.03
2018-04-06T03:04:53.083Z,-1.04
2018-04-06T03:05:53.541Z,-1.02
2018-04-06T03:06:54.218Z,-1.04
2018-04-06T03:07:54.491Z,-1.04
2018-04-06T03:08:54.960Z,-1.04
2018-04-06T03:09:55.482Z,-1.04
2018-04-06T03:10:55.897Z,-1.04
2018-04-06T03:11:56.373Z,-1.06
2018-04-06T03:12:56.847Z,-1.06
2018-04-06T03:13:57.312Z,-1.06
2018-04-06T03:15:58.251Z,-1.06
2018-04-06T03:17:59.202Z,-1.08
2018-04-06T03:20:00.191Z,-1.08
2018-04-06T03:21:00.614Z,-1.08
2018-04-06T03:22:01.087Z,-1.08
2018-04-06T03:24:02.017Z,-1.10
2018-04-06T03:26:02.971Z,-1.10
2018-04-06T03:27:03.435Z,-1.12
2018-04-06T03:28:03.907Z,-1.11
2018-04-06T03:29:04.575Z,-1.10
2018-04-06T03:30:04.900Z,-1.12
2018-04-06T03:31:05.320Z,-1.12
2018-04-06T03:32:05.794Z,-1.12
2018-04-06T03:33:06.263Z,-1.13
2018-04-06T03:34:06.733Z,-1.13
2018-04-06T03:35:07.203Z,-1.13
2018-04-06T03:38:08.617Z,-1.14
2018-04-06T03:39:09.087Z,-1.14
2018-04-06T03:40:09.609Z,-1.14
2018-04-06T03:41:10.023Z,-1.16
2018-04-06T03:42:10.700Z,-1.16
2018-04-06T03:44:11.439Z,-1.17
2018-04-06T03:45:11.910Z,-1.16
2018-04-06T03:46:12.387Z,-1.18
2018-04-06T03:47:12.851Z,-1.17
2018-04-06T03:48:13.316Z,-1.17
2018-04-06T03:50:14.314Z,-1.20
2018-04-06T03:51:14.733Z,-1.20
2018-04-06T03:53:15.678Z,-1.20
2018-04-06T03:54:16.147Z,-1.20
2018-04-06T03:56:17.089Z,-1.20
2018-04-06T03:57:17.756Z,-1.20
2018-04-06T03:58:18.028Z,-1.22
2018-04-06T03:59:18.500Z,-1.22
2018-04-06T04:00:19.021Z,-1.22
2018-04-06T04:01:19.648Z,-1.22
2018-04-06T04:02:20.114Z,-1.23
2018-04-06T04:03:20.583Z,-1.24
2018-04-06T04:04:22.267Z,-1.24
2018-04-06T04:05:21.374Z,-1.23
2018-04-06T04:06:21.989Z,-1.24
2018-04-06T04:07:22.468Z,-1.25
2018-04-06T04:08:22.942Z,-1.25
2018-04-06T04:09:23.210Z,-1.26
2018-04-06T04:10:24.486Z,-1.26
2018-04-06T04:12:24.617Z,-1.28
2018-04-06T04:13:25.087Z,-1.27
2018-04-06T04:14:25.558Z,-1.28
2018-04-06T04:15:26.026Z,-1.28
2018-04-06T04:16:26.498Z,-1.28
2018-04-06T04:17:27.173Z,-1.28
2018-04-06T04:18:30.470Z,-1.28
2018-04-06T04:19:27.909Z,-1.28
2018-04-06T04:26:31.406Z,-1.30
2018-04-06T04:27:31.672Z,-1.31
2018-04-06T04:28:32.549Z,-1.30
2018-04-06T04:29:32.614Z,-1.30
2018-04-06T04:30:33.337Z,-1.32
2018-04-06T04:32:34.027Z,-1.30
2018-04-06T04:33:34.498Z,-1.31
2018-04-06T04:34:35.370Z,-1.30
2018-04-06T04:38:38.268Z,-1.33
2018-04-06T04:39:37.725Z,-1.32
2018-04-06T04:40:38.043Z,-1.32
2018-04-06T04:41:39.660Z,-1.32
2018-04-06T04:43:39.197Z,-1.33
2018-04-06T04:44:39.672Z,-1.33
2018-04-06T04:45:51.522Z,-1.34
2018-04-06T04:48:41.550Z,-1.33
2018-04-06T04:50:42.698Z,-1.33
2018-04-06T04:51:44.785Z,-1.33
2018-04-06T04:52:45.260Z,-1.34
2018-04-06T04:54:44.580Z,-1.34
2018-04-06T04:55:45.103Z,-1.34
2018-04-06T04:56:46.735Z,-1.34
2018-04-06T04:57:45.792Z,-1.33
2018-04-06T05:01:47.674Z,-1.32
2018-04-06T05:02:48.345Z,-1.32
2018-04-06T05:04:49.085Z,-1.32
2018-04-06T05:05:51.174Z,-1.30
2018-04-06T05:06:50.231Z,-1.31
2018-04-06T05:07:51.687Z,-1.29
2018-04-06T05:10:04.583Z,-1.30
2018-04-06T05:10:57.186Z,-1.29
2018-04-06T05:14:54.401Z,-1.28
2018-04-06T05:23:59.848Z,-1.18
2018-04-06T05:24:59.309Z,-1.18
2018-04-06T05:28:00.717Z,-1.16
2018-04-06T05:30:01.257Z,-1.13
2018-04-06T05:33:08.943Z,-1.10
2018-04-06T05:37:04.811Z,-1.04
2018-04-06T05:55:27.623Z,-0.74
2018-04-06T05:56:28.294Z,-0.74
2018-04-06T05:58:41.033Z,-0.68
2018-04-06T06:00:29.435Z,-0.64
2018-04-06T06:02:30.180Z,-0.60
2018-04-06T06:03:30.847Z,-0.57
2018-04-06T06:05:31.790Z,-0.52
2018-04-06T06:06:32.262Z,-0.49
2018-04-06T06:12:34.949Z,-0.33
2018-04-06T06:13:35.561Z,-0.30
2018-04-06T06:17:37.849Z,-0.18
2018-04-06T06:19:38.195Z,-0.12
2018-04-06T06:20:38.863Z,-0.09
2018-04-06T06:22:39.855Z,-0.02
2018-04-06T06:23:40.068Z,0.00
2018-04-06T06:25:41.219Z,0.08
2018-04-06T06:26:42.894Z,0.12
2018-04-06T06:28:45.464Z,0.23
2018-04-06T06:29:43.105Z,0.26
2018-04-06T06:30:57.326Z,0.30
2018-04-06T06:31:45.463Z,0.34
2018-04-06T06:32:48.211Z,0.38
2018-04-06T06:35:46.131Z,0.52
2018-04-06T06:37:46.726Z,0.63
2018-04-06T06:38:47.351Z,0.66
2018-04-06T06:39:48.812Z,0.70
2018-04-06T06:42:50.778Z,0.86
2018-04-06T06:43:50.520Z,0.92
2018-04-06T06:44:49.977Z,0.97
2018-04-06T06:45:51.856Z,1.02
2018-04-06T06:49:52.748Z,1.24
2018-04-06T06:52:54.364Z,1.41
2018-04-06T06:53:54.970Z,1.46
2018-04-06T07:07:00.778Z,2.25
2018-04-06T07:10:05.633Z,2.44
2018-04-06T07:15:06.368Z,2.76
2018-04-06T07:16:06.433Z,2.82
2018-04-06T07:20:08.077Z,3.09
2018-04-06T08:04:30.136Z,5.76
2018-04-06T08:14:10.782Z,6.24
2018-04-06T08:32:33.872Z,7.06
2018-04-06T08:43:37.515Z,7.60
2018-04-06T08:45:39.205Z,7.70
2018-04-06T08:49:43.132Z,7.94
2018-04-06T09:39:01.710Z,14.23
2018-04-06T09:46:17.287Z,14.88
2018-04-06T09:55:07.608Z,15.62
2018-04-06T10:41:05.138Z,14.94
2018-04-06T10:42:00.733Z,14.84
2018-04-06T10:52:33.431Z,13.94
2018-04-06T11:01:40.634Z,13.43
2018-04-06T11:13:10.724Z,12.95
2018-04-06T11:14:14.782Z,12.91
2018-04-06T11:16:18.037Z,12.84
2018-04-06T11:17:17.966Z,12.81
2018-04-06T11:19:16.015Z,12.75
2018-04-06T11:57:16.534Z,12.07
2018-04-06T12:02:31.627Z,12.02
2018-04-06T12:12:04.341Z,11.96
2018-04-06T12:20:08.525Z,11.88
2018-04-06T12:31:44.411Z,11.82
2018-04-06T13:25:48.813Z,11.55
2018-04-06T14:01:23.709Z,11.38
2018-04-06T14:03:12.845Z,11.36
2018-04-06T14:16:26.973Z,11.26
2018-04-06T14:18:42.263Z,11.22
2018-04-06T14:35:12.198Z,11.02
2018-04-06T21:11:04.513Z,4.68
2018-04-06T21:16:08.112Z,4.58
2018-04-06T21:17:20.836Z,4.57
2018-04-06T21:34:15.438Z,4.30
2018-04-06T21:46:24.477Z,4.10
2018-04-06T21:48:22.276Z,4.06
2018-04-06T21:49:25.897Z,4.06
2018-04-06T21:51:24.261Z,4.03
2018-04-06T21:53:26.552Z,4.01
2018-04-06T22:01:29.938Z,3.89
2018-04-06T22:02:29.975Z,3.86
2018-04-06T22:08:31.531Z,3.76
2018-04-06T22:09:32.280Z,3.73
2018-04-06T22:10:33.045Z,3.71
2018-04-06T22:11:34.622Z,3.70
2018-04-06T22:13:33.862Z,3.68
2018-04-06T22:15:38.209Z,3.64
2018-04-06T22:17:36.161Z,3.62
2018-04-06T22:19:36.786Z,3.59
2018-04-06T22:30:45.620Z,3.43
2018-04-06T22:35:44.038Z,3.37
2018-04-06T22:38:45.806Z,3.34
2018-04-06T22:44:50.454Z,3.26
2018-04-06T22:49:51.004Z,3.24
2018-04-06T22:51:51.995Z,3.20
2018-04-06T22:52:53.635Z,3.20
2018-04-06T22:54:53.165Z,3.18
2018-04-06T22:55:54.847Z,3.18
2018-04-06T22:56:53.909Z,3.16
2018-04-06T23:00:56.207Z,3.13
2018-04-06T23:01:56.325Z,3.08
2018-04-06T23:02:56.743Z,3.12
2018-04-06T23:03:57.222Z,3.06
2018-04-06T23:05:58.374Z,3.07
2018-04-06T23:09:00.196Z,3.03
2018-04-06T23:10:00.400Z,3.04
2018-04-06T23:11:00.940Z,3.02
2018-04-06T23:12:01.011Z,3.02
2018-04-06T23:14:01.953Z,3.00
2018-04-06T23:21:05.477Z,2.95
2018-04-06T23:23:07.862Z,2.93
2018-04-06T23:27:08.924Z,2.90
2018-04-06T23:31:56.040Z,2.86
2018-04-06T23:34:09.824Z,2.86
2018-04-06T23:35:57.797Z,2.83
2018-04-06T23:37:00.494Z,2.82
2018-04-06T23:38:59.624Z,2.81
2018-04-06T23:41:00.101Z,2.78
2018-04-06T23:45:02.272Z,2.78
2018-04-06T23:46:03.546Z,2.74
2018-04-06T23:48:03.873Z,2.74
2018-04-06T23:52:06.126Z,2.71
2018-04-06T23:58:08.628Z,2.68
